Heidrick, KY (40949)

1:36 PM EST on December 04, 2016 (GMT -0500)
Mackey Bend | | Change Station

Elev 1007 ft 36.82 °N, 83.96 °W | Updated 25 seconds ago

Light Rain
Light Rain
45.0 °F
Feels Like 45 °F
N
0.0
Wind Variable Wind from West

Today
High -- | Low -- °F
--% Chance of Precip.
Yesterday
High -- | Low -- °F
Precip. -- in
Pressure 30.03 in
Visibility 7.0 miles
Clouds Overcast 3200 ft
Windchill 45 °F
Dew Point 44 °F
Humidity 98%
Rainfall 0.04 in
Snow Depth Not available.
7:32 AM 5:18 PM
Waxing Crescent, 24% visible
METAR KLOZ 041753Z AUTO 12003KT 7SM -RA OVC032 06/04 A3002 RMK AO2 RAB1654E15B49 PRESFR SLP169 P0000 60002 T00560039 10056 20028 56038
Pressure 30.03 in
Visibility 7.0 miles
Clouds Overcast 3200 ft
Windchill 45 °F
Dew Point 44 °F
Humidity 98%
Rainfall 0.04 in
Snow Depth Not available.
7:32 AM 5:18 PM
Waxing Crescent, 24% visible
METAR KLOZ 041753Z AUTO 12003KT 7SM -RA OVC032 06/04 A3002 RMK AO2 RAB1654E15B49 PRESFR SLP169 P0000 60002 T00560039 10056 20028 56038

10-Day Weather Forecast

Almanac

Astronomy

Dec. 04, 2016 Rise Set
Actual Time
Civil Twilight
Nautical Twilight
Astronomical Twilight
Moon
Length of Visible Light
Length of Day
Tomorrow will be .
, % of the Moon is Illuminated

Today's Extremes

State Highs State Lows

Community

WunderPhotos

Upload Photos

1,955,640 photos uploaded!

WunderBlog® & News

Nearby

Air Quality

  Air Quality AQ Index Pollutant
Not available.

Snow Depth

Station Depth Elevation

Earthquake Activity

City Distance Mag. Time & Date
Minimum magnitude displayed is 2.5.

Coastal Water Temperatures

Place Temperature

Stations

Nearby Weather Stations

Station Location Temp. Windchill Dew Point Humidity Wind Precip. Elev Updated Type
                   

Watches & Warnings

There are currently no watches in effect.